Seabourn Odyssey — C6XC6 — position and weather

sailwx.info

Track history (hours):
 
Tides and Currents Weather Stations Pressure Air Temp Water Temp Dewpoint Dewpoint Depression Visibility Wind Speed Wind Dir Waves Ship Positions

Seabourn Odyssey

Last reported at 2019-Jun-14 14:46 UTC. Time now 2019-Jun-16 14:36 UTC.
Position N 35°54' E 014°31'.

Length 198 m; draft 6.7 m.

Type: Ship. MMSI: 309416000.

Date/timePositionNaut miles runAvg speedWind from/ knotsBaromVisibWave heightAir tempDewpointWater temp
2019-Jun-14 14:46N 35°54' E 014°31'7 9.3
2019-Jun-14 13:59N 36°01' E 014°29'612.4
2019-Jun-14 13:30N 36°02' E 014°21'1 0.1
2019-Jun-14 04:59N 36°02' E 014°20'714.6
2019-Jun-14 04:30N 36°05' E 014°28'815.4
2019-Jun-14 04:00N 36°08' E 014°36'2313.2
2019-Jun-14 02:15N 36°17' E 015°03'51 2.3
2019-Jun-13 03:41N 37°03' E 015°30'1 7.2
2019-Jun-13 03:28N 37°03' E 015°32'4 7.4
2019-Jun-13 02:52N 37°04' E 015°38'50 7.7
2019-Jun-12 20:22N 37°53' E 015°31'7 8.1
2019-Jun-12 19:30N 38°00' E 015°31'4 8.0
2019-Jun-12 19:00N 38°04' E 015°32'5 9.7
2019-Jun-12 18:30N 38°09' E 015°34'1111.9
2019-Jun-12 17:34N 38°18' E 015°41'1 9.7
2019-Jun-12 17:30N 38°19' E 015°40'714.8
2019-Jun-12 17:00N 38°24' E 015°33'714.7
2019-Jun-12 16:30N 38°25' E 015°24'714.7
2019-Jun-12 16:01N 38°25' E 015°15'714.4
2019-Jun-12 15:31N 38°27' E 015°06'612.8
2019-Jun-12 15:00N 38°28' E 014°58'0 0.1
2019-Jun-12 14:24N 38°28' E 014°58'0 0.1
2019-Jun-12 13:51N 38°28' E 014°58'0 0.0
2019-Jun-12 12:54N 38°28' E 014°58'0 0.0
2019-Jun-12 12:30N 38°28' E 014°58'0 0.0
2019-Jun-12 11:24N 38°28' E 014°58'0 0.0
2019-Jun-12 10:57N 38°28' E 014°58'0 0.0
2019-Jun-12 10:30N 38°28' E 014°58'0 0.0
2019-Jun-12 10:00N 38°28' E 014°58'0 0.0
2019-Jun-12 09:27N 38°28' E 014°58'0 0.0
2019-Jun-12 08:59N 38°28' E 014°58'0 0.0
2019-Jun-12 08:05N 38°28' E 014°58'0 0.1
2019-Jun-12 07:56N 38°28' E 014°58'0 0.0
2019-Jun-12 07:29N 38°28' E 014°58'0 0.1
2019-Jun-12 06:59N 38°28' E 014°58'0 0.0
2019-Jun-12 06:29N 38°28' E 014°58'0 0.0
2019-Jun-12 05:56N 38°28' E 014°58'0 0.1
2019-Jun-12 05:30N 38°28' E 014°58'3 5.7
2019-Jun-12 05:00N 38°30' E 015°01'612.2
2019-Jun-12 04:30N 38°36' E 014°60'4 8.3
2019-Jun-12 03:59N 38°40' E 014°59'17 8.4
2019-Jun-12 01:56N 38°56' E 014°53'92 9.6
2019-Jun-11 16:17N 40°28' E 014°38'3 9.9
2019-Jun-11 16:00N 40°31' E 014°38'4 8.1
2019-Jun-11 15:30N 40°35' E 014°37'2 0.2
2019-Jun-11 04:29N 40°37' E 014°36'613.6
2019-Jun-11 04:00N 40°34' E 014°28'714.7
2019-Jun-11 03:30N 40°31' E 014°19'714.6
2019-Jun-11 03:01N 40°29' E 014°10'714.0
2019-Jun-11 02:30N 40°29' E 014°01'714.7
2019-Jun-11 02:00N 40°32' E 013°52'714.8
2019-Jun-11 01:30N 40°34' E 013°43'714.8
2019-Jun-11 01:01N 40°37' E 013°34'714.9
2019-Jun-11 00:31N 40°39' E 013°24'815.0
2019-Jun-11 00:01N 40°42' E 013°15'714.9
2019-Jun-10 23:31N 40°44' E 013°06'914.8
2019-Jun-10 22:55N 40°47' E 012°55'3114.3
2019-Jun-10 20:44N 41°08' E 012°24'94 4.7
2019-Jun-10 00:56N 42°04' E 010°44'717.1
2019-Jun-10 00:29N 42°04' E 010°34'917.0
2019-Jun-09 23:57N 42°05' E 010°22'2015.3
2019-Jun-09 22:40N 42°11' E 009°57'317.3
2019-Jun-09 22:30N 42°13' E 009°54'1717.1
2019-Jun-09 21:30N 42°28' E 009°42'2218.0
2019-Jun-09 20:18N 42°49' E 009°38'617.6
2019-Jun-09 19:58N 42°55' E 009°37'1017.3
2019-Jun-09 19:24N 43°05' E 009°35'614.9
2019-Jun-09 19:00N 43°11' E 009°33'2014.5
2019-Jun-09 17:36N 43°30' E 009°40'214.5
2019-Jun-09 17:30N 43°32' E 009°40'714.6
2019-Jun-09 17:00N 43°39' E 009°43'714.8
2019-Jun-09 16:30N 43°46' E 009°47'714.8
2019-Jun-09 16:00N 43°53' E 009°50'714.5
2019-Jun-09 15:31N 43°60' E 009°52'4 6.8
2019-Jun-09 14:57N 44°03' E 009°51'0 0.0
2019-Jun-09 14:30N 44°03' E 009°51'0 0.0
2019-Jun-09 14:00N 44°03' E 009°51'0 0.0
2019-Jun-09 13:30N 44°03' E 009°51'0 0.0
2019-Jun-09 13:00N 44°03' E 009°51'0 0.0
2019-Jun-09 12:29N 44°03' E 009°51'0 0.1
2019-Jun-09 12:00N 44°03' E 009°51'0 0.0
2019-Jun-09 11:30N 44°03' E 009°51'0 0.0
2019-Jun-09 10:59N 44°03' E 009°51'0 0.0
2019-Jun-09 10:29N 44°03' E 009°51'0 0.0
2019-Jun-09 09:59N 44°03' E 009°51'0 0.0
2019-Jun-09 09:29N 44°03' E 009°51'0 0.0
2019-Jun-09 08:59N 44°03' E 009°51'0 0.1
2019-Jun-09 08:29N 44°03' E 009°51'0 0.0
2019-Jun-09 07:59N 44°03' E 009°51'0 0.0
2019-Jun-09 07:29N 44°03' E 009°51'0 0.0
2019-Jun-09 06:59N 44°03' E 009°51'0 0.0
2019-Jun-09 06:28N 44°03' E 009°51'0 0.0
2019-Jun-09 05:59N 44°03' E 009°51'1 2.2
2019-Jun-09 05:31N 44°03' E 009°53'510.6
2019-Jun-09 05:00N 43°58' E 009°56'1212.2
2019-Jun-09 04:00N 43°54' E 009°41'714.0
2019-Jun-09 03:30N 43°54' E 009°31'714.2
2019-Jun-09 03:00N 43°53' E 009°21'714.1
2019-Jun-09 02:31N 43°52' E 009°11'714.0
2019-Jun-09 02:00N 43°52' E 009°02'714.5
2019-Jun-09 01:30N 43°51' E 008°52'714.6
2019-Jun-09 01:00N 43°50' E 008°42'714.6
2019-Jun-09 00:30N 43°49' E 008°32'714.4
2019-Jun-09 00:00N 43°48' E 008°22'714.4
2019-Jun-08 23:30N 43°46' E 008°12'714.3
2019-Jun-08 23:00N 43°45' E 008°02'714.1
2019-Jun-08 22:30N 43°44' E 007°53'813.9
2019-Jun-08 21:58N 43°44' E 007°42'613.9
2019-Jun-08 21:30N 43°43' E 007°33'510.8
2019-Jun-08 21:00N 43°44' E 007°26'0 0.2
2019-Jun-08 20:27N 43°44' E 007°26'0 0.0
2019-Jun-08 19:59N 43°44' E 007°26'0 0.0
2019-Jun-08 19:29N 43°44' E 007°26'0 0.0
2019-Jun-08 18:59N 43°44' E 007°26'0 0.0
2019-Jun-08 18:29N 43°44' E 007°26'0 0.0
2019-Jun-08 17:59N 43°44' E 007°26'0 0.0
2019-Jun-08 17:29N 43°44' E 007°26'0 0.0
2019-Jun-08 16:59N 43°44' E 007°26'0 0.0
2019-Jun-08 16:29N 43°44' E 007°26'0 0.0
2019-Jun-08 15:59N 43°44' E 007°26'0 0.0
2019-Jun-08 15:29N 43°44' E 007°26'0 0.0
2019-Jun-08 14:59N 43°44' E 007°26'0 0.0
2019-Jun-08 14:26N 43°44' E 007°26'0 0.0
2019-Jun-08 13:59N 43°44' E 007°26'0 0.0
2019-Jun-08 13:29N 43°44' E 007°26'0 0.0
2019-Jun-08 12:59N 43°44' E 007°26'0 0.0
2019-Jun-08 12:29N 43°44' E 007°26'0 0.0
2019-Jun-08 11:59N 43°44' E 007°26'0 0.0
2019-Jun-08 11:29N 43°44' E 007°26'0 0.0
2019-Jun-08 10:59N 43°44' E 007°26'0 0.0
2019-Jun-08 10:29N 43°44' E 007°26'0 0.0
2019-Jun-08 09:59N 43°44' E 007°26'0 0.0
2019-Jun-08 09:29N 43°44' E 007°26'0 0.0
2019-Jun-08 08:59N 43°44' E 007°26'0 0.0
2019-Jun-08 08:29N 43°44' E 007°26'0 0.0
2019-Jun-08 07:59N 43°44' E 007°26'0 0.0
2019-Jun-08 07:29N 43°44' E 007°26'0 0.0
2019-Jun-08 06:59N 43°44' E 007°26'0 0.0
2019-Jun-08 06:29N 43°44' E 007°26'0 0.0
2019-Jun-08 05:59N 43°44' E 007°26'0 0.0
2019-Jun-08 05:30N 43°44' E 007°26'1 1.6
2019-Jun-08 05:00N 43°44' E 007°27'3 6.6
2019-Jun-08 04:30N 43°41' E 007°29'4 7.0
2019-Jun-08 04:00N 43°38' E 007°32'3 6.8
2019-Jun-08 03:30N 43°35' E 007°34'3 6.9
2019-Jun-08 03:00N 43°32' E 007°36'4 7.1
2019-Jun-08 02:30N 43°29' E 007°38'3 6.8
2019-Jun-08 02:01N 43°26' E 007°40'3 6.4
2019-Jun-08 01:31N 43°22' E 007°40'3 6.8
2019-Jun-08 01:01N 43°19' E 007°42'3 6.8
2019-Jun-08 00:31N 43°16' E 007°44'3 6.8
2019-Jun-08 00:00N 43°13' E 007°46'3 6.8
2019-Jun-07 23:31N 43°10' E 007°47'4 6.8
2019-Jun-07 22:59N 43°07' E 007°49'3 6.8
2019-Jun-07 22:30N 43°04' E 007°51'3 6.5
2019-Jun-07 22:00N 43°01' E 007°54'3 6.8
2019-Jun-07 21:30N 42°59' E 007°58'3 6.7
2019-Jun-07 21:00N 42°57' E 008°02'3 6.8
2019-Jun-07 20:31N 42°56' E 008°05'3 6.8
2019-Jun-07 20:00N 42°54' E 008°09'3 6.7
2019-Jun-07 19:31N 42°52' E 008°13'3 6.8
2019-Jun-07 19:00N 42°50' E 008°17'3 6.8
2019-Jun-07 18:30N 42°48' E 008°21'3 6.8
2019-Jun-07 18:00N 42°46' E 008°25'3 6.8
2019-Jun-07 17:31N 42°44' E 008°29'3 6.8
2019-Jun-07 17:00N 42°43' E 008°33'3 6.8
2019-Jun-07 16:30N 42°41' E 008°37'3 6.8
2019-Jun-07 16:00N 42°39' E 008°41'4 7.3
2019-Jun-07 15:30N 42°37' E 008°45'3 6.7
2019-Jun-07 15:01N 42°34' E 008°46'0 0.2
2019-Jun-07 14:29N 42°34' E 008°46'0 0.0
2019-Jun-07 13:59N 42°34' E 008°46'0 0.0
2019-Jun-07 13:31N 42°34' E 008°46'0 0.0
2019-Jun-07 12:58N 42°34' E 008°46'0 0.0
2019-Jun-07 12:28N 42°34' E 008°46'0 0.0
2019-Jun-07 12:00N 42°34' E 008°46'0 0.0
2019-Jun-07 11:31N 42°34' E 008°46'0 0.1
2019-Jun-07 10:57N 42°34' E 008°46'0 0.0
2019-Jun-07 10:28N 42°34' E 008°46'0 0.1
2019-Jun-07 10:01N 42°34' E 008°46'0 0.1
2019-Jun-07 09:31N 42°34' E 008°46'0 0.0
2019-Jun-07 09:01N 42°34' E 008°46'0 0.0
2019-Jun-07 08:25N 42°34' E 008°46'0 0.0
2019-Jun-07 08:01N 42°34' E 008°46'0 0.0
2019-Jun-07 07:30N 42°34' E 008°46'0 0.0
2019-Jun-07 07:00N 42°34' E 008°46'0 0.0
2019-Jun-07 06:31N 42°34' E 008°46'0 0.0
2019-Jun-07 05:51N 42°34' E 008°46'0 0.2
2019-Jun-07 05:30N 42°34' E 008°46'3 6.0
2019-Jun-07 04:57N 42°37' E 008°44'4 7.0
2019-Jun-07 04:19N 42°39' E 008°39'2 7.0
2019-Jun-07 04:00N 42°40' E 008°36'4 7.1
2019-Jun-07 03:31N 42°41' E 008°32'4 7.1
2019-Jun-07 03:01N 42°43' E 008°27'4 7.1
2019-Jun-07 02:31N 42°44' E 008°23'3 6.9
2019-Jun-07 02:01N 42°46' E 008°19'4 7.0
2019-Jun-07 01:30N 42°47' E 008°14'4 7.3
2019-Jun-07 01:00N 42°49' E 008°10'4 7.3
2019-Jun-07 00:31N 42°50' E 008°05'4 7.4
2019-Jun-07 00:01N 42°52' E 008°01'4 7.2
2019-Jun-06 23:31N 42°54' E 007°56'4 7.2
2019-Jun-06 23:00N 42°55' E 007°52'4 7.2
2019-Jun-06 22:31N 42°57' E 007°48'4 7.6
2019-Jun-06 22:01N 42°58' E 007°43'4 7.9
2019-Jun-06 21:30N 42°60' E 007°38'4 8.0
2019-Jun-06 21:01N 43°02' E 007°33'4 8.0
2019-Jun-06 20:30N 43°03' E 007°28'4 8.1
2019-Jun-06 20:01N 43°05' E 007°23'4 8.0
2019-Jun-06 19:31N 43°06' E 007°18'4 8.0
2019-Jun-06 19:00N 43°08' E 007°13'4 8.1
2019-Jun-06 18:31N 43°09' E 007°08'4 8.3
2019-Jun-06 18:01N 43°12' E 007°03'4 8.3
2019-Jun-06 17:31N 43°14' E 006°58'4 8.4
2019-Jun-06 17:01N 43°16' E 006°53'4 8.0
2019-Jun-06 16:31N 43°18' E 006°48'5 7.3
2019-Jun-06 15:49N 43°18' E 006°41'3 8.4
2019-Jun-06 15:27N 43°17' E 006°38'0 0.5
2019-Jun-06 14:52N 43°17' E 006°37'0 0.0
2019-Jun-06 14:22N 43°17' E 006°37'5 0.5
2019-Jun-06 03:53N 43°18' E 006°44'3 8.3
2019-Jun-06 03:30N 43°17' E 006°48'4 8.5
2019-Jun-06 03:00N 43°15' E 006°53'4 7.0
2019-Jun-06 02:23N 43°11' E 006°55'44 5.6
2019-Jun-05 18:36N 42°53' E 006°00'2 7.3
2019-Jun-05 18:23N 42°55' E 005°60'3 7.6
2019-Jun-05 18:00N 42°58' E 005°59'8 8.7
2019-Jun-05 17:05N 43°05' E 005°56'1 6.0
2019-Jun-05 16:59N 43°06' E 005°55'1 1.9
2019-Jun-05 16:25N 43°06' E 005°54'0 0.0
2019-Jun-05 15:58N 43°06' E 005°54'0 0.0
2019-Jun-05 15:28N 43°06' E 005°54'0 0.0
2019-Jun-05 14:58N 43°06' E 005°54'0 0.0
2019-Jun-05 14:28N 43°06' E 005°54'0 0.0
2019-Jun-05 13:58N 43°06' E 005°54'0 0.0
2019-Jun-05 13:28N 43°06' E 005°54'0 0.0
2019-Jun-05 12:58N 43°06' E 005°54'0 0.0
2019-Jun-05 12:30N 43°06' E 005°54'0 0.0
2019-Jun-05 12:00N 43°06' E 005°54'0 0.0
2019-Jun-05 11:28N 43°06' E 005°54'0 0.0
2019-Jun-05 10:58N 43°06' E 005°54'0 0.0
2019-Jun-05 10:30N 43°06' E 005°54'0 0.0
2019-Jun-05 09:59N 43°06' E 005°54'0 0.0
2019-Jun-05 09:25N 43°06' E 005°54'0 0.0
2019-Jun-05 08:59N 43°06' E 005°54'0 0.0
2019-Jun-05 08:30N 43°06' E 005°54'0 0.0
2019-Jun-05 07:57N 43°06' E 005°54'0 0.0
2019-Jun-05 07:30N 43°06' E 005°54'0 0.0
2019-Jun-05 06:57N 43°06' E 005°54'0 0.0
2019-Jun-05 06:30N 43°06' E 005°54'0 0.8
2019-Jun-05 06:01N 43°06' E 005°54'7 7.8
2019-Jun-05 05:03N 43°00' E 006°00'113.3
2019-Jun-05 05:00N 42°60' E 006°01'613.1
2019-Jun-05 04:30N 42°53' E 006°00'913.5
2019-Jun-05 03:50N 42°48' E 005°50'513.8
2019-Jun-05 03:28N 42°43' E 005°48'5913.7
2019-Jun-04 23:11N 41°48' E 005°20'  
Track history (hours):
 
Tides and Currents Weather Stations Pressure Air Temp Water Temp Dewpoint Dewpoint Depression Visibility Wind Speed Wind Dir Waves Ship Positions

Seabourn Odyssey

Last reported at 2019-Jun-14 14:46 UTC. Time now 2019-Jun-16 14:36 UTC.
Position N 35°54' E 014°31'.

Length 198 m; draft 6.7 m.

Type: Ship. MMSI: 309416000.

Date/timePositionNaut miles runAvg speedWind from/ knotsBaromVisibWave heightAir tempDewpointWater temp
2019-Jun-14 14:46N 35°54' E 014°31'7 9.3
2019-Jun-14 13:59N 36°01' E 014°29'612.4
2019-Jun-14 13:30N 36°02' E 014°21'1 0.1
2019-Jun-14 04:59N 36°02' E 014°20'714.6
2019-Jun-14 04:30N 36°05' E 014°28'815.4
2019-Jun-14 04:00N 36°08' E 014°36'2313.2
2019-Jun-14 02:15N 36°17' E 015°03'51 2.3
2019-Jun-13 03:41N 37°03' E 015°30'1 7.2
2019-Jun-13 03:28N 37°03' E 015°32'4 7.4
2019-Jun-13 02:52N 37°04' E 015°38'50 7.7
2019-Jun-12 20:22N 37°53' E 015°31'7 8.1
2019-Jun-12 19:30N 38°00' E 015°31'4 8.0
2019-Jun-12 19:00N 38°04' E 015°32'5 9.7
2019-Jun-12 18:30N 38°09' E 015°34'1111.9
2019-Jun-12 17:34N 38°18' E 015°41'1 9.7
2019-Jun-12 17:30N 38°19' E 015°40'714.8
2019-Jun-12 17:00N 38°24' E 015°33'714.7
2019-Jun-12 16:30N 38°25' E 015°24'714.7
2019-Jun-12 16:01N 38°25' E 015°15'714.4
2019-Jun-12 15:31N 38°27' E 015°06'612.8
2019-Jun-12 15:00N 38°28' E 014°58'0 0.1
2019-Jun-12 14:24N 38°28' E 014°58'0 0.1
2019-Jun-12 13:51N 38°28' E 014°58'0 0.0
2019-Jun-12 12:54N 38°28' E 014°58'0 0.0
2019-Jun-12 12:30N 38°28' E 014°58'0 0.0
2019-Jun-12 11:24N 38°28' E 014°58'0 0.0
2019-Jun-12 10:57N 38°28' E 014°58'0 0.0
2019-Jun-12 10:30N 38°28' E 014°58'0 0.0
2019-Jun-12 10:00N 38°28' E 014°58'0 0.0
2019-Jun-12 09:27N 38°28' E 014°58'0 0.0
2019-Jun-12 08:59N 38°28' E 014°58'0 0.0
2019-Jun-12 08:05N 38°28' E 014°58'0 0.1
2019-Jun-12 07:56N 38°28' E 014°58'0 0.0
2019-Jun-12 07:29N 38°28' E 014°58'0 0.1
2019-Jun-12 06:59N 38°28' E 014°58'0 0.0
2019-Jun-12 06:29N 38°28' E 014°58'0 0.0
2019-Jun-12 05:56N 38°28' E 014°58'0 0.1
2019-Jun-12 05:30N 38°28' E 014°58'3 5.7
2019-Jun-12 05:00N 38°30' E 015°01'612.2
2019-Jun-12 04:30N 38°36' E 014°60'4 8.3
2019-Jun-12 03:59N 38°40' E 014°59'17 8.4
2019-Jun-12 01:56N 38°56' E 014°53'92 9.6
2019-Jun-11 16:17N 40°28' E 014°38'3 9.9
2019-Jun-11 16:00N 40°31' E 014°38'4 8.1
2019-Jun-11 15:30N 40°35' E 014°37'2 0.2
2019-Jun-11 04:29N 40°37' E 014°36'613.6
2019-Jun-11 04:00N 40°34' E 014°28'714.7
2019-Jun-11 03:30N 40°31' E 014°19'714.6
2019-Jun-11 03:01N 40°29' E 014°10'714.0
2019-Jun-11 02:30N 40°29' E 014°01'714.7
2019-Jun-11 02:00N 40°32' E 013°52'714.8
2019-Jun-11 01:30N 40°34' E 013°43'714.8
2019-Jun-11 01:01N 40°37' E 013°34'714.9
2019-Jun-11 00:31N 40°39' E 013°24'815.0
2019-Jun-11 00:01N 40°42' E 013°15'714.9
2019-Jun-10 23:31N 40°44' E 013°06'914.8
2019-Jun-10 22:55N 40°47' E 012°55'3114.3
2019-Jun-10 20:44N 41°08' E 012°24'94 4.7
2019-Jun-10 00:56N 42°04' E 010°44'717.1
2019-Jun-10 00:29N 42°04' E 010°34'917.0
2019-Jun-09 23:57N 42°05' E 010°22'2015.3
2019-Jun-09 22:40N 42°11' E 009°57'317.3
2019-Jun-09 22:30N 42°13' E 009°54'1717.1
2019-Jun-09 21:30N 42°28' E 009°42'2218.0
2019-Jun-09 20:18N 42°49' E 009°38'617.6
2019-Jun-09 19:58N 42°55' E 009°37'1017.3
2019-Jun-09 19:24N 43°05' E 009°35'614.9
2019-Jun-09 19:00N 43°11' E 009°33'2014.5
2019-Jun-09 17:36N 43°30' E 009°40'214.5
2019-Jun-09 17:30N 43°32' E 009°40'714.6
2019-Jun-09 17:00N 43°39' E 009°43'714.8
2019-Jun-09 16:30N 43°46' E 009°47'714.8
2019-Jun-09 16:00N 43°53' E 009°50'714.5
2019-Jun-09 15:31N 43°60' E 009°52'4 6.8
2019-Jun-09 14:57N 44°03' E 009°51'0 0.0
2019-Jun-09 14:30N 44°03' E 009°51'0 0.0
2019-Jun-09 14:00N 44°03' E 009°51'0 0.0
2019-Jun-09 13:30N 44°03' E 009°51'0 0.0
2019-Jun-09 13:00N 44°03' E 009°51'0 0.0
2019-Jun-09 12:29N 44°03' E 009°51'0 0.1
2019-Jun-09 12:00N 44°03' E 009°51'0 0.0
2019-Jun-09 11:30N 44°03' E 009°51'0 0.0
2019-Jun-09 10:59N 44°03' E 009°51'0 0.0
2019-Jun-09 10:29N 44°03' E 009°51'0 0.0
2019-Jun-09 09:59N 44°03' E 009°51'0 0.0
2019-Jun-09 09:29N 44°03' E 009°51'0 0.0
2019-Jun-09 08:59N 44°03' E 009°51'0 0.1
2019-Jun-09 08:29N 44°03' E 009°51'0 0.0
2019-Jun-09 07:59N 44°03' E 009°51'0 0.0
2019-Jun-09 07:29N 44°03' E 009°51'0 0.0
2019-Jun-09 06:59N 44°03' E 009°51'0 0.0
2019-Jun-09 06:28N 44°03' E 009°51'0 0.0
2019-Jun-09 05:59N 44°03' E 009°51'1 2.2
2019-Jun-09 05:31N 44°03' E 009°53'510.6
2019-Jun-09 05:00N 43°58' E 009°56'1212.2
2019-Jun-09 04:00N 43°54' E 009°41'714.0
2019-Jun-09 03:30N 43°54' E 009°31'714.2
2019-Jun-09 03:00N 43°53' E 009°21'714.1
2019-Jun-09 02:31N 43°52' E 009°11'714.0
2019-Jun-09 02:00N 43°52' E 009°02'714.5
2019-Jun-09 01:30N 43°51' E 008°52'714.6
2019-Jun-09 01:00N 43°50' E 008°42'714.6
2019-Jun-09 00:30N 43°49' E 008°32'714.4
2019-Jun-09 00:00N 43°48' E 008°22'714.4
2019-Jun-08 23:30N 43°46' E 008°12'714.3
2019-Jun-08 23:00N 43°45' E 008°02'714.1
2019-Jun-08 22:30N 43°44' E 007°53'813.9
2019-Jun-08 21:58N 43°44' E 007°42'613.9
2019-Jun-08 21:30N 43°43' E 007°33'510.8
2019-Jun-08 21:00N 43°44' E 007°26'0 0.2
2019-Jun-08 20:27N 43°44' E 007°26'0 0.0
2019-Jun-08 19:59N 43°44' E 007°26'0 0.0
2019-Jun-08 19:29N 43°44' E 007°26'0 0.0
2019-Jun-08 18:59N 43°44' E 007°26'0 0.0
2019-Jun-08 18:29N 43°44' E 007°26'0 0.0
2019-Jun-08 17:59N 43°44' E 007°26'0 0.0
2019-Jun-08 17:29N 43°44' E 007°26'0 0.0
2019-Jun-08 16:59N 43°44' E 007°26'0 0.0
2019-Jun-08 16:29N 43°44' E 007°26'0 0.0
2019-Jun-08 15:59N 43°44' E 007°26'0 0.0
2019-Jun-08 15:29N 43°44' E 007°26'0 0.0
2019-Jun-08 14:59N 43°44' E 007°26'0 0.0
2019-Jun-08 14:26N 43°44' E 007°26'0 0.0
2019-Jun-08 13:59N 43°44' E 007°26'0 0.0
2019-Jun-08 13:29N 43°44' E 007°26'0 0.0
2019-Jun-08 12:59N 43°44' E 007°26'0 0.0
2019-Jun-08 12:29N 43°44' E 007°26'0 0.0
2019-Jun-08 11:59N 43°44' E 007°26'0 0.0
2019-Jun-08 11:29N 43°44' E 007°26'0 0.0
2019-Jun-08 10:59N 43°44' E 007°26'0 0.0
2019-Jun-08 10:29N 43°44' E 007°26'0 0.0
2019-Jun-08 09:59N 43°44' E 007°26'0 0.0
2019-Jun-08 09:29N 43°44' E 007°26'0 0.0
2019-Jun-08 08:59N 43°44' E 007°26'0 0.0
2019-Jun-08 08:29N 43°44' E 007°26'0 0.0
2019-Jun-08 07:59N 43°44' E 007°26'0 0.0
2019-Jun-08 07:29N 43°44' E 007°26'0 0.0
2019-Jun-08 06:59N 43°44' E 007°26'0 0.0
2019-Jun-08 06:29N 43°44' E 007°26'0 0.0
2019-Jun-08 05:59N 43°44' E 007°26'0 0.0
2019-Jun-08 05:30N 43°44' E 007°26'1 1.6
2019-Jun-08 05:00N 43°44' E 007°27'3 6.6
2019-Jun-08 04:30N 43°41' E 007°29'4 7.0
2019-Jun-08 04:00N 43°38' E 007°32'3 6.8
2019-Jun-08 03:30N 43°35' E 007°34'3 6.9
2019-Jun-08 03:00N 43°32' E 007°36'4 7.1
2019-Jun-08 02:30N 43°29' E 007°38'3 6.8
2019-Jun-08 02:01N 43°26' E 007°40'3 6.4
2019-Jun-08 01:31N 43°22' E 007°40'3 6.8
2019-Jun-08 01:01N 43°19' E 007°42'3 6.8
2019-Jun-08 00:31N 43°16' E 007°44'3 6.8
2019-Jun-08 00:00N 43°13' E 007°46'3 6.8
2019-Jun-07 23:31N 43°10' E 007°47'4 6.8
2019-Jun-07 22:59N 43°07' E 007°49'3 6.8
2019-Jun-07 22:30N 43°04' E 007°51'3 6.5
2019-Jun-07 22:00N 43°01' E 007°54'3 6.8
2019-Jun-07 21:30N 42°59' E 007°58'3 6.7
2019-Jun-07 21:00N 42°57' E 008°02'3 6.8
2019-Jun-07 20:31N 42°56' E 008°05'3 6.8
2019-Jun-07 20:00N 42°54' E 008°09'3 6.7
2019-Jun-07 19:31N 42°52' E 008°13'3 6.8
2019-Jun-07 19:00N 42°50' E 008°17'3 6.8
2019-Jun-07 18:30N 42°48' E 008°21'3 6.8
2019-Jun-07 18:00N 42°46' E 008°25'3 6.8
2019-Jun-07 17:31N 42°44' E 008°29'3 6.8
2019-Jun-07 17:00N 42°43' E 008°33'3 6.8
2019-Jun-07 16:30N 42°41' E 008°37'3 6.8
2019-Jun-07 16:00N 42°39' E 008°41'4 7.3
2019-Jun-07 15:30N 42°37' E 008°45'3 6.7
2019-Jun-07 15:01N 42°34' E 008°46'0 0.2
2019-Jun-07 14:29N 42°34' E 008°46'0 0.0
2019-Jun-07 13:59N 42°34' E 008°46'0 0.0
2019-Jun-07 13:31N 42°34' E 008°46'0 0.0
2019-Jun-07 12:58N 42°34' E 008°46'0 0.0
2019-Jun-07 12:28N 42°34' E 008°46'0 0.0
2019-Jun-07 12:00N 42°34' E 008°46'0 0.0
2019-Jun-07 11:31N 42°34' E 008°46'0 0.1
2019-Jun-07 10:57N 42°34' E 008°46'0 0.0
2019-Jun-07 10:28N 42°34' E 008°46'0 0.1
2019-Jun-07 10:01N 42°34' E 008°46'0 0.1
2019-Jun-07 09:31N 42°34' E 008°46'0 0.0
2019-Jun-07 09:01N 42°34' E 008°46'0 0.0
2019-Jun-07 08:25N 42°34' E 008°46'0 0.0
2019-Jun-07 08:01N 42°34' E 008°46'0 0.0
2019-Jun-07 07:30N 42°34' E 008°46'0 0.0
2019-Jun-07 07:00N 42°34' E 008°46'0 0.0
2019-Jun-07 06:31N 42°34' E 008°46'0 0.0
2019-Jun-07 05:51N 42°34' E 008°46'0 0.2
2019-Jun-07 05:30N 42°34' E 008°46'3 6.0
2019-Jun-07 04:57N 42°37' E 008°44'4 7.0
2019-Jun-07 04:19N 42°39' E 008°39'2 7.0
2019-Jun-07 04:00N 42°40' E 008°36'4 7.1
2019-Jun-07 03:31N 42°41' E 008°32'4 7.1
2019-Jun-07 03:01N 42°43' E 008°27'4 7.1
2019-Jun-07 02:31N 42°44' E 008°23'3 6.9
2019-Jun-07 02:01N 42°46' E 008°19'4 7.0
2019-Jun-07 01:30N 42°47' E 008°14'4 7.3
2019-Jun-07 01:00N 42°49' E 008°10'4 7.3
2019-Jun-07 00:31N 42°50' E 008°05'4 7.4
2019-Jun-07 00:01N 42°52' E 008°01'4 7.2
2019-Jun-06 23:31N 42°54' E 007°56'4 7.2
2019-Jun-06 23:00N 42°55' E 007°52'4 7.2
2019-Jun-06 22:31N 42°57' E 007°48'4 7.6
2019-Jun-06 22:01N 42°58' E 007°43'4 7.9
2019-Jun-06 21:30N 42°60' E 007°38'4 8.0
2019-Jun-06 21:01N 43°02' E 007°33'4 8.0
2019-Jun-06 20:30N 43°03' E 007°28'4 8.1
2019-Jun-06 20:01N 43°05' E 007°23'4 8.0
2019-Jun-06 19:31N 43°06' E 007°18'4 8.0
2019-Jun-06 19:00N 43°08' E 007°13'4 8.1
2019-Jun-06 18:31N 43°09' E 007°08'4 8.3
2019-Jun-06 18:01N 43°12' E 007°03'4 8.3
2019-Jun-06 17:31N 43°14' E 006°58'4 8.4
2019-Jun-06 17:01N 43°16' E 006°53'4 8.0
2019-Jun-06 16:31N 43°18' E 006°48'5 7.3
2019-Jun-06 15:49N 43°18' E 006°41'3 8.4
2019-Jun-06 15:27N 43°17' E 006°38'0 0.5
2019-Jun-06 14:52N 43°17' E 006°37'0 0.0
2019-Jun-06 14:22N 43°17' E 006°37'5 0.5
2019-Jun-06 03:53N 43°18' E 006°44'3 8.3
2019-Jun-06 03:30N 43°17' E 006°48'4 8.5
2019-Jun-06 03:00N 43°15' E 006°53'4 7.0
2019-Jun-06 02:23N 43°11' E 006°55'44 5.6
2019-Jun-05 18:36N 42°53' E 006°00'2 7.3
2019-Jun-05 18:23N 42°55' E 005°60'3 7.6
2019-Jun-05 18:00N 42°58' E 005°59'8 8.7
2019-Jun-05 17:05N 43°05' E 005°56'1 6.0
2019-Jun-05 16:59N 43°06' E 005°55'1 1.9
2019-Jun-05 16:25N 43°06' E 005°54'0 0.0
2019-Jun-05 15:58N 43°06' E 005°54'0 0.0
2019-Jun-05 15:28N 43°06' E 005°54'0 0.0
2019-Jun-05 14:58N 43°06' E 005°54'0 0.0
2019-Jun-05 14:28N 43°06' E 005°54'0 0.0
2019-Jun-05 13:58N 43°06' E 005°54'0 0.0
2019-Jun-05 13:28N 43°06' E 005°54'0 0.0
2019-Jun-05 12:58N 43°06' E 005°54'0 0.0
2019-Jun-05 12:30N 43°06' E 005°54'0 0.0
2019-Jun-05 12:00N 43°06' E 005°54'0 0.0
2019-Jun-05 11:28N 43°06' E 005°54'0 0.0
2019-Jun-05 10:58N 43°06' E 005°54'0 0.0
2019-Jun-05 10:30N 43°06' E 005°54'0 0.0
2019-Jun-05 09:59N 43°06' E 005°54'0 0.0
2019-Jun-05 09:25N 43°06' E 005°54'0 0.0
2019-Jun-05 08:59N 43°06' E 005°54'0 0.0
2019-Jun-05 08:30N 43°06' E 005°54'0 0.0
2019-Jun-05 07:57N 43°06' E 005°54'0 0.0
2019-Jun-05 07:30N 43°06' E 005°54'0 0.0
2019-Jun-05 06:57N 43°06' E 005°54'0 0.0
2019-Jun-05 06:30N 43°06' E 005°54'0 0.8
2019-Jun-05 06:01N 43°06' E 005°54'7 7.8
2019-Jun-05 05:03N 43°00' E 006°00'113.3
2019-Jun-05 05:00N 42°60' E 006°01'613.1
2019-Jun-05 04:30N 42°53' E 006°00'913.5
2019-Jun-05 03:50N 42°48' E 005°50'513.8
2019-Jun-05 03:28N 42°43' E 005°48'5913.7
2019-Jun-04 23:11N 41°48' E 005°20'  

Dump ship's entire track history